Time;durP1;ratioP1;P1;durP2;ratioP2;P2;SDS_P1;SDS_P2;PMS_P1;PMS_P2;Temp;Humidity;BMP_temperature;BMP_pressure;BME280_temperature;BME280_humidity;BME280_pressure;Samples;Min_cycle;Max_cycle;Signal;HPM_P1;HPM_P2
2021/01/04 00:00:49;;;;;;;18.87;11.13;;;1.20;99.90;;;2.13;100.00;100092.59;4751835;30;20262;-64
2021/01/04 00:03:48;;;;;;;18.90;11.30;;;1.20;99.90;;;1.89;100.00;100089.97;4751585;30;20206;-62
2021/01/04 00:06:39;;;;;;;19.23;11.87;;;1.20;99.90;;;2.15;100.00;100084.47;4751725;30;20224;-63
2021/01/04 00:09:42;;;;;;;18.73;11.73;;;1.20;99.90;;;2.22;100.00;100082.78;4751415;30;20682;-65
2021/01/04 00:12:14;;;;;;;17.67;11.57;;;1.30;99.90;;;2.27;100.00;100081.31;4751457;30;20196;-63
2021/01/04 00:15:01;;;;;;;15.67;11.17;;;1.30;99.90;;;2.37;100.00;100073.97;4751507;30;20299;-63
2021/01/04 00:18:14;;;;;;;17.83;11.50;;;1.30;99.90;;;2.05;100.00;100081.97;4751180;30;20376;-63
2021/01/04 00:20:55;;;;;;;15.97;11.47;;;1.30;99.90;;;1.94;100.00;100071.72;4696382;30;20327;-63
2021/01/04 00:23:37;;;;;;;14.50;10.03;;;1.20;99.90;;;2.10;100.00;100077.00;4743667;30;20303;-63
2021/01/04 00:26:12;;;;;;;17.33;11.97;;;1.20;99.90;;;1.91;100.00;100082.66;4751030;30;20197;-63
2021/01/04 00:28:40;;;;;;;17.60;11.37;;;1.20;99.90;;;1.92;100.00;100081.66;4751080;30;20726;-62
2021/01/04 00:31:15;;;;;;;17.20;11.50;;;1.20;99.90;;;2.25;100.00;100093.09;4751429;30;20211;-62
2021/01/04 00:33:47;;;;;;;17.30;11.80;;;1.30;99.90;;;2.25;100.00;100080.63;4751004;30;20223;-64
2021/01/04 00:36:24;;;;;;;16.17;11.13;;;1.30;99.90;;;2.37;100.00;100087.25;4751405;30;20279;-64
2021/01/04 00:39:35;;;;;;;16.73;10.47;;;1.40;99.90;;;2.40;100.00;100080.78;4751234;30;20208;-63
2021/01/04 00:42:17;;;;;;;16.93;11.10;;;1.40;99.90;;;2.06;100.00;100088.13;4750922;30;20216;-63
2021/01/04 00:45:02;;;;;;;16.73;11.00;;;1.30;99.90;;;2.05;100.00;100087.28;4750913;30;20235;-63
2021/01/04 00:47:43;;;;;;;18.80;11.30;;;1.30;99.90;;;2.10;100.00;100095.59;4750889;30;20246;-63
2021/01/04 00:50:52;;;;;;;17.27;11.13;;;1.30;99.90;;;2.14;100.00;100098.75;4750723;30;20251;-62
2021/01/04 00:53:29;;;;;;;17.13;11.57;;;1.30;99.90;;;2.03;100.00;100096.44;4751253;30;20201;-62
2021/01/04 00:56:55;;;;;;;18.40;11.97;;;1.30;99.90;;;2.33;100.00;100095.75;4751058;30;20238;-63
2021/01/04 00:59:33;;;;;;;18.07;11.13;;;1.30;99.90;;;2.41;100.00;100093.06;4750726;30;20307;-62
2021/01/04 01:02:44;;;;;;;16.47;11.27;;;1.30;99.90;;;2.10;100.00;100097.41;4750645;30;20264;-62
2021/01/04 01:05:19;;;;;;;19.00;12.43;;;1.30;99.90;;;2.10;100.00;100092.94;4715605;30;20239;-62
2021/01/04 01:08:12;;;;;;;15.90;10.97;;;1.30;99.90;;;2.19;100.00;100091.94;4750900;30;20200;-62
2021/01/04 01:10:45;;;;;;;17.67;11.30;;;1.30;99.90;;;2.29;100.00;100091.75;4750543;30;20279;-63
2021/01/04 01:13:33;;;;;;;17.77;11.20;;;1.30;99.90;;;2.07;100.00;100098.59;4750533;30;20232;-63
2021/01/04 01:16:31;;;;;;;19.13;11.67;;;1.30;99.90;;;2.12;100.00;100098.91;4750544;30;20193;-63
2021/01/04 01:19:13;;;;;;;18.23;11.37;;;1.30;99.90;;;2.22;100.00;100093.41;4739359;30;20212;-62
2021/01/04 01:21:45;;;;;;;18.53;11.90;;;1.30;99.90;;;2.10;100.00;100106.22;4750945;30;20322;-63
2021/01/04 01:24:14;;;;;;;16.80;11.03;;;1.20;99.90;;;2.02;100.00;100100.91;4750515;30;20223;-62
2021/01/04 01:27:20;;;;;;;16.53;11.00;;;1.20;99.90;;;2.14;100.00;100099.59;4750245;30;20315;-62
2021/01/04 01:30:55;;;;;;;17.17;11.13;;;1.30;99.90;;;2.09;100.00;100099.25;4748182;30;20347;-62
2021/01/04 01:34:08;;;;;;;19.43;11.77;;;1.20;99.90;;;2.23;100.00;100098.56;4747204;30;20564;-62
2021/01/04 01:36:58;;;;;;;15.70;11.20;;;1.30;99.90;;;2.23;100.00;100092.44;4754220;30;20363;-63
2021/01/04 01:40:07;;;;;;;17.63;12.30;;;1.30;99.90;;;2.32;100.00;100097.56;4733084;30;20256;-62
2021/01/04 01:43:13;;;;;;;16.97;11.03;;;1.30;99.90;;;2.18;100.00;100108.88;4720910;30;20245;-62
2021/01/04 01:45:50;;;;;;;18.57;12.03;;;1.30;99.90;;;2.03;100.00;100105.22;4718660;30;20238;-62
2021/01/04 01:48:33;;;;;;;18.10;11.60;;;1.30;99.90;;;1.97;100.00;100108.56;4718809;30;20301;-62
2021/01/04 01:51:09;;;;;;;17.07;11.87;;;1.20;99.90;;;2.19;100.00;100113.19;4718805;30;20228;-62
2021/01/04 01:54:04;;;;;;;20.33;12.03;;;1.20;99.90;;;2.21;100.00;100123.66;4718750;30;20285;-62
2021/01/04 01:56:58;;;;;;;18.30;11.80;;;1.30;99.90;;;2.20;100.00;100114.84;4718642;30;20209;-63
2021/01/04 02:00:10;;;;;;;19.60;12.70;;;1.20;99.90;;;2.22;100.00;100115.50;4718478;30;20281;-63
2021/01/04 02:02:50;;;;;;;20.47;12.00;;;1.20;99.90;;;2.00;100.00;100126.81;4718832;30;20205;-63
2021/01/04 02:05:34;;;;;;;17.67;11.30;;;1.30;99.90;;;1.87;100.00;100125.66;4719370;30;20277;-62
2021/01/04 02:08:06;;;;;;;19.80;11.57;;;1.20;99.90;;;2.10;100.00;100121.31;4729184;30;20254;-63
2021/01/04 02:10:44;;;;;;;18.20;12.23;;;1.20;99.90;;;2.23;100.00;100116.34;4735943;30;20289;-62
2021/01/04 02:13:24;;;;;;;18.13;11.63;;;1.20;99.90;;;2.19;100.00;100120.31;4744000;30;20208;-63
2021/01/04 02:15:59;;;;;;;20.67;13.03;;;1.30;99.90;;;2.18;100.00;100121.34;4752965;30;20216;-63
2021/01/04 02:18:50;;;;;;;17.73;11.77;;;1.30;99.90;;;2.39;100.00;100119.81;4753255;30;20189;-63
2021/01/04 02:22:08;;;;;;;19.63;11.60;;;1.40;99.90;;;2.17;100.00;100120.50;4753227;30;20631;-62
2021/01/04 02:24:37;;;;;;;19.53;11.47;;;1.40;99.90;;;2.10;100.00;100121.31;4753388;30;20236;-63
2021/01/04 02:27:13;;;;;;;20.30;12.87;;;1.30;99.90;;;2.08;100.00;100118.03;4753184;30;20215;-63
2021/01/04 02:29:42;;;;;;;20.33;12.13;;;1.30;99.90;;;1.92;100.00;100116.19;4753126;30;20681;-62
2021/01/04 02:32:10;;;;;;;20.83;11.93;;;1.20;99.90;;;1.96;100.00;100116.69;4752904;30;20300;-63
2021/01/04 02:34:44;;;;;;;21.90;12.10;;;1.20;99.90;;;2.12;100.00;100120.16;4752892;30;20812;-62
2021/01/04 02:37:14;;;;;;;17.60;11.57;;;1.20;99.90;;;2.12;100.00;100122.00;4753126;30;20618;-63
2021/01/04 02:39:51;;;;;;;19.17;11.93;;;1.20;99.90;;;2.14;100.00;100109.38;4753047;30;20279;-64
2021/01/04 02:42:22;;;;;;;19.13;11.70;;;1.20;99.90;;;2.16;100.00;100116.19;4753040;30;20283;-63
2021/01/04 02:44:50;;;;;;;20.33;12.83;;;1.30;99.90;;;2.25;100.00;100112.50;4752097;30;20283;-62
2021/01/04 02:47:46;;;;;;;19.13;11.67;;;1.30;99.90;;;2.15;100.00;100116.34;4752594;30;20347;-63
2021/01/04 02:50:31;;;;;;;21.90;12.67;;;1.30;99.90;;;2.08;100.00;100121.50;4752522;30;20337;-62
2021/01/04 02:53:35;;;;;;;19.37;12.00;;;1.30;99.90;;;2.08;100.00;100120.69;4752984;30;20287;-62
2021/01/04 02:56:15;;;;;;;19.27;11.67;;;1.20;99.90;;;2.24;100.00;100113.53;4744413;30;20322;-63
2021/01/04 02:59:06;;;;;;;18.90;11.90;;;1.20;99.90;;;2.41;100.00;100117.81;4752898;30;20619;-62
2021/01/04 03:01:43;;;;;;;21.93;12.93;;;1.30;99.90;;;2.19;100.00;100123.81;4752508;30;20633;-64
2021/01/04 03:04:15;;;;;;;18.27;12.60;;;1.30;99.90;;;2.04;100.00;100114.88;4752690;30;20343;-62
2021/01/04 03:06:56;;;;;;;16.97;11.23;;;1.20;99.90;;;2.20;100.00;100121.97;4752711;30;20203;-62
2021/01/04 03:09:25;;;;;;;19.80;12.20;;;1.20;99.90;;;1.99;100.00;100119.00;4752394;30;20235;-63
2021/01/04 03:11:54;;;;;;;21.93;12.43;;;1.20;99.90;;;2.04;100.00;100112.22;4752302;30;20647;-63
2021/01/04 03:14:58;;;;;;;19.67;12.37;;;1.20;99.90;;;2.19;100.00;100123.81;4752031;30;20319;-62
2021/01/04 03:17:42;;;;;;;17.97;11.80;;;1.20;99.90;;;2.15;100.00;100119.84;4752409;30;20200;-62
2021/01/04 03:20:15;;;;;;;18.83;11.17;;;1.20;99.90;;;1.89;100.00;100119.19;4752465;30;20203;-62
2021/01/04 03:22:46;;;;;;;21.47;12.83;;;1.20;99.90;;;1.93;100.00;100123.16;4752167;30;20665;-63
2021/01/04 03:25:20;;;;;;;19.87;11.70;;;1.20;99.90;;;2.10;100.00;100118.66;4752247;30;20197;-62
2021/01/04 03:27:49;;;;;;;21.50;12.97;;;1.20;99.90;;;2.33;100.00;100117.81;4752227;30;20200;-62
2021/01/04 03:30:19;;;;;;;20.30;12.63;;;1.30;99.90;;;2.37;100.00;100118.31;4751575;30;20301;-63
2021/01/04 03:32:46;;;;;;;21.47;12.00;;;1.30;99.90;;;2.40;100.00;100105.50;4752225;30;20208;-63
2021/01/04 03:35:14;;;;;;;18.97;11.43;;;1.30;99.90;;;2.15;100.00;100119.84;4752049;30;20267;-63
2021/01/04 03:37:41;;;;;;;18.97;11.97;;;1.30;99.90;;;2.10;100.00;100114.19;4752049;30;20220;-62
2021/01/04 03:40:10;;;;;;;17.70;11.43;;;1.30;99.90;;;1.99;100.00;100124.31;4751807;30;20311;-63
2021/01/04 03:42:37;;;;;;;22.37;12.37;;;1.20;99.90;;;2.27;100.00;100109.69;4751793;30;20649;-62
2021/01/04 03:45:08;;;;;;;21.03;11.97;;;1.30;99.90;;;2.25;100.00;100117.81;4751678;30;20241;-62
2021/01/04 03:47:35;;;;;;;20.97;12.40;;;1.30;99.90;;;2.33;100.00;100112.50;4751755;30;20216;-62
2021/01/04 03:50:06;;;;;;;20.00;11.67;;;1.30;99.90;;;2.12;100.00;100111.38;4751798;30;20331;-62
2021/01/04 03:52:34;;;;;;;20.77;12.30;;;1.30;99.90;;;2.27;100.00;100110.53;4751727;30;20664;-63
2021/01/04 03:55:01;;;;;;;19.77;12.03;;;1.30;99.90;;;2.21;100.00;100115.69;4751619;30;20273;-63
2021/01/04 03:57:28;;;;;;;22.23;12.13;;;1.30;99.90;;;2.11;100.00;100115.88;4751082;30;20761;-62
2021/01/04 03:59:56;;;;;;;19.57;11.53;;;1.30;99.90;;;2.16;100.00;100108.22;4751377;30;20216;-63
2021/01/04 04:02:24;;;;;;;22.83;12.70;;;1.30;99.90;;;2.18;100.00;100116.03;4751771;30;20212;-63
2021/01/04 04:04:51;;;;;;;23.37;12.70;;;1.30;99.90;;;1.98;100.00;100114.72;4751605;30;20598;-63
2021/01/04 04:07:18;;;;;;;20.27;11.63;;;1.20;99.90;;;2.01;100.00;100120.50;4751782;30;20357;-63
2021/01/04 04:09:47;;;;;;;19.03;11.70;;;1.20;99.90;;;1.92;100.00;100115.34;4751530;30;20220;-63
2021/01/04 04:12:14;;;;;;;21.67;11.70;;;1.20;99.90;;;2.27;100.00;100121.16;4751368;30;20246;-62
2021/01/04 04:14:48;;;;;;;19.33;11.87;;;1.20;99.90;;;2.14;100.00;100118.19;4750864;30;20318;-62
2021/01/04 04:17:15;;;;;;;20.73;11.73;;;1.20;99.90;;;2.05;100.00;100123.66;4751711;30;20242;-62
2021/01/04 04:19:45;;;;;;;20.30;12.77;;;1.20;99.90;;;2.09;100.00;100117.00;4751475;30;20218;-62
2021/01/04 04:22:13;;;;;;;18.83;11.90;;;1.20;99.90;;;2.32;100.00;100121.47;4751380;30;20211;-63
2021/01/04 04:24:41;;;;;;;20.47;11.90;;;1.30;99.90;;;2.29;100.00;100115.66;4751658;30;20622;-62
2021/01/04 04:27:10;;;;;;;21.83;12.40;;;1.30;99.90;;;2.18;100.00;100122.16;4751091;30;20255;-62
2021/01/04 04:29:39;;;;;;;20.23;11.97;;;1.30;99.90;;;2.00;100.00;100121.50;4750911;30;20299;-63
2021/01/04 04:32:07;;;;;;;22.97;13.07;;;1.20;99.90;;;2.00;100.00;100123.31;4751264;30;20299;-63
2021/01/04 04:34:36;;;;;;;22.53;11.77;;;1.20;99.90;;;1.99;100.00;100122.50;4751190;30;20596;-62
2021/01/04 04:37:06;;;;;;;21.07;12.43;;;1.20;99.90;;;1.99;100.00;100122.50;4751313;30;20236;-62
2021/01/04 04:39:33;;;;;;;23.37;12.70;;;1.20;99.90;;;2.23;100.00;100124.31;4750898;30;20213;-63
2021/01/04 04:42:06;;;;;;;19.63;10.73;;;1.20;99.90;;;2.27;100.00;100110.53;4750940;30;20289;-62
2021/01/04 04:44:42;;;;;;;20.17;12.07;;;1.20;99.90;;;2.09;100.00;100128.47;4750898;30;20221;-63
2021/01/04 04:47:41;;;;;;;19.67;12.20;;;1.20;99.90;;;1.95;100.00;100120.31;4751266;30;20278;-62
2021/01/04 04:50:48;;;;;;;23.60;12.10;;;1.20;99.90;;;2.10;100.00;100132.78;4750592;30;20244;-62
2021/01/04 04:53:44;;;;;;;20.30;11.97;;;1.20;99.90;;;1.88;100.00;100130.78;4734730;30;20250;-62
2021/01/04 04:56:37;;;;;;;21.23;11.83;;;1.10;99.90;;;2.09;100.00;100127.63;4750966;30;20213;-64
2021/01/04 04:59:17;;;;;;;23.43;12.40;;;1.10;99.90;;;2.12;100.00;100122.81;4750687;30;20295;-62
2021/01/04 05:02:01;;;;;;;20.33;11.77;;;1.10;99.90;;;2.08;100.00;100116.19;4751002;30;20220;-62
2021/01/04 05:05:17;;;;;;;17.13;11.30;;;1.10;99.90;;;1.93;100.00;100128.47;4751040;30;20722;-63
2021/01/04 05:07:55;;;;;;;24.13;13.07;;;1.20;99.90;;;1.75;100.00;100133.09;4750864;30;20235;-62
2021/01/04 05:10:27;;;;;;;19.60;11.57;;;1.10;99.90;;;1.97;100.00;100129.81;4754706;30;20275;-62
2021/01/04 05:13:12;;;;;;;32.40;13.10;;;1.10;99.90;;;1.99;100.00;100122.50;4753251;30;20374;-64
2021/01/04 05:15:53;;;;;;;21.43;11.67;;;1.10;99.90;;;1.99;100.00;100132.28;4754037;30;20767;-62
2021/01/04 05:18:56;;;;;;;19.90;11.90;;;1.10;99.90;;;1.87;100.00;100139.75;4754198;30;20260;-62
2021/01/04 05:22:11;;;;;;;20.53;12.03;;;1.20;99.90;;;2.06;100.00;100131.44;4754037;30;20683;-62
2021/01/04 05:25:35;;;;;;;24.73;12.40;;;1.10;99.90;;;1.94;100.00;100140.75;4754012;30;20722;-63
2021/01/04 05:28:57;;;;;;;17.77;10.73;;;1.10;99.90;;;1.95;100.00;100136.25;4741845;30;20252;-63
2021/01/04 05:32:21;;;;;;;19.17;11.77;;;1.10;99.90;;;2.02;100.00;100127.47;4748482;30;20219;-62
2021/01/04 05:34:52;;;;;;;21.60;11.93;;;1.10;99.90;;;1.87;100.00;100134.44;4737889;30;20719;-62
2021/01/04 05:37:37;;;;;;;18.83;11.30;;;1.10;99.90;;;1.96;100.00;100127.31;4754201;30;20238;-63
2021/01/04 05:40:28;;;;;;;21.33;12.50;;;1.10;99.90;;;2.16;100.00;100125.97;4753977;30;20200;-61
2021/01/04 05:43:16;;;;;;;19.70;11.63;;;1.20;99.90;;;2.15;100.00;100132.28;4753826;30;20196;-63
2021/01/04 05:45:54;;;;;;;21.00;11.33;;;1.20;99.90;;;1.98;100.00;100131.44;4753967;30;20272;-63
2021/01/04 05:48:47;;;;;;;20.17;11.40;;;1.20;99.90;;;1.88;100.00;100133.44;4753898;30;20289;-62
2021/01/04 05:51:22;;;;;;;23.00;12.13;;;1.20;99.90;;;1.92;100.00;100134.78;4753613;30;20197;-62
2021/01/04 05:53:50;;;;;;;23.50;10.73;;;1.10;99.90;;;2.09;100.00;100135.63;4754046;30;20565;-62
2021/01/04 05:56:24;;;;;;;20.53;10.90;;;1.20;99.90;;;2.00;100.00;100132.13;4753368;30;20239;-63
2021/01/04 05:59:05;;;;;;;20.93;12.40;;;1.20;99.90;;;2.22;100.00;100144.75;4753284;30;20196;-63
2021/01/04 06:01:32;;;;;;;21.43;11.27;;;1.20;99.90;;;2.27;100.00;100137.09;4753793;30;20306;-62
2021/01/04 06:04:00;;;;;;;22.20;11.40;;;1.30;99.90;;;2.10;100.00;100146.06;4753707;30;20251;-62
2021/01/04 06:06:51;;;;;;;21.43;11.73;;;1.30;99.90;;;2.20;100.00;100145.88;4756059;30;20208;-63
2021/01/04 06:09:18;;;;;;;19.20;11.07;;;1.20;99.90;;;2.21;100.00;100144.91;4755440;30;20275;-62
2021/01/04 06:11:56;;;;;;;22.03;11.27;;;1.20;99.90;;;2.26;100.00;100146.09;4753897;30;20213;-62
2021/01/04 06:14:26;;;;;;;20.37;12.37;;;1.30;99.90;;;2.10;100.00;100151.38;4753066;30;20679;-63
2021/01/04 06:17:00;;;;;;;18.47;11.27;;;1.20;99.90;;;2.18;100.00;100154.03;4753340;30;20258;-62
2021/01/04 06:19:34;;;;;;;18.60;10.73;;;1.30;99.90;;;2.27;100.00;100150.38;4753160;30;20628;-62
2021/01/04 06:22:10;;;;;;;18.93;11.03;;;1.30;99.90;;;2.17;100.00;100151.53;4752982;30;20230;-63
2021/01/04 06:24:40;;;;;;;19.47;10.77;;;1.20;99.90;;;2.21;100.00;100152.88;4753442;30;20289;-64
2021/01/04 06:27:13;;;;;;;17.90;11.03;;;1.30;99.90;;;2.32;100.00;100152.53;4753328;30;20243;-62
2021/01/04 06:29:46;;;;;;;22.00;11.80;;;1.30;99.90;;;2.23;100.00;100150.91;4752909;30;20255;-63
2021/01/04 06:32:26;;;;;;;21.23;12.33;;;1.30;99.90;;;2.15;100.00;100153.53;4753266;30;20295;-63
2021/01/04 06:34:58;;;;;;;16.70;10.57;;;1.30;99.90;;;2.19;100.00;100154.88;4753061;30;20243;-63
2021/01/04 06:37:29;;;;;;;16.97;10.43;;;1.30;99.90;;;2.15;100.00;100151.72;4753172;30;20200;-62
2021/01/04 06:40:05;;;;;;;23.00;11.13;;;1.30;99.90;;;2.22;100.00;100152.72;4752829;30;20656;-63
2021/01/04 06:42:40;;;;;;;23.53;11.07;;;1.30;99.90;;;2.29;100.00;100152.88;4752678;30;20336;-62
2021/01/04 06:45:26;;;;;;;20.07;10.70;;;1.30;99.90;;;2.10;100.00;100156.69;4753063;30;20287;-64
2021/01/04 06:48:06;;;;;;;37.53;11.97;;;1.30;99.90;;;2.02;100.00;100154.03;4753033;30;20283;-62
2021/01/04 06:50:52;;;;;;;18.23;11.47;;;1.20;99.90;;;1.83;100.00;100166.78;4753281;30;20268;-63
2021/01/04 06:54:07;;;;;;;40.67;12.73;;;1.20;99.90;;;1.91;100.00;100167.63;4753705;30;20281;-64
2021/01/04 06:57:51;;;;;;;21.37;11.77;;;1.10;99.90;;;2.01;100.00;100167.50;4680564;30;20622;-62
2021/01/04 07:00:41;;;;;;;20.40;11.40;;;1.20;99.90;;;2.09;100.00;100160.34;4715089;30;20285;-63
2021/01/04 07:04:03;;;;;;;24.87;11.60;;;1.20;99.90;;;2.24;100.00;100169.31;4715050;30;20271;-63
2021/01/04 07:07:09;;;;;;;21.90;11.20;;;1.20;99.90;;;2.29;100.00;100172.31;4752452;30;20603;-63
2021/01/04 07:10:36;;;;;;;20.40;11.20;;;1.30;99.90;;;2.13;100.00;100177.59;4752334;30;20235;-63
2021/01/04 07:13:49;;;;;;;21.57;11.83;;;1.20;99.90;;;2.27;100.00;100176.13;4751711;30;20594;-63
2021/01/04 07:16:49;;;;;;;23.03;11.97;;;1.30;99.90;;;1.97;100.00;100172.31;4752570;30;20323;-63
2021/01/04 07:19:58;;;;;;;32.40;12.03;;;1.30;99.90;;;2.19;100.00;100178.78;4752063;30;20201;-62
2021/01/04 07:22:41;;;;;;;21.53;11.40;;;1.30;99.90;;;1.98;100.00;100176.59;4752420;30;20231;-63
2021/01/04 07:25:24;;;;;;;22.90;11.67;;;1.30;99.90;;;2.29;100.00;100192.72;4752212;30;20286;-62
2021/01/04 07:28:02;;;;;;;23.37;12.07;;;1.30;99.90;;;2.23;100.00;100193.41;4751894;30;20228;-63
2021/01/04 07:30:54;;;;;;;20.53;11.73;;;1.30;99.90;;;2.39;100.00;100188.91;4752192;30;20201;-62
2021/01/04 07:33:40;;;;;;;23.87;12.03;;;1.30;99.90;;;2.30;100.00;100197.06;4752078;30;20199;-64
2021/01/04 07:36:18;;;;;;;20.57;11.77;;;1.40;99.90;;;2.07;100.00;100199.53;4752107;30;20251;-64
2021/01/04 07:39:00;;;;;;;20.73;11.70;;;1.30;99.90;;;1.90;100.00;100210.28;4752038;30;20220;-63
2021/01/04 07:41:49;;;;;;;19.23;10.60;;;1.30;99.90;;;2.10;100.00;100215.13;4752402;30;20287;-62
2021/01/04 07:44:45;;;;;;;21.20;12.07;;;1.30;99.90;;;2.02;100.00;100207.16;4740622;30;20224;-61
2021/01/04 07:47:48;;;;;;;20.00;11.57;;;1.20;99.90;;;2.05;100.00;100209.50;4748734;30;20305;-61
2021/01/04 07:51:05;;;;;;;24.23;11.57;;;1.20;99.90;;;2.23;100.00;100204.84;4734801;30;20496;-62
2021/01/04 07:54:22;;;;;;;24.83;12.50;;;1.30;99.90;;;2.17;100.00;100200.22;4725845;30;20249;-62
2021/01/04 07:57:48;;;;;;;23.37;11.77;;;1.30;99.90;;;2.25;100.00;100208.16;4714182;30;20261;-62
2021/01/04 08:01:15;;;;;;;20.77;12.27;;;1.30;99.90;;;2.08;100.00;100200.38;4724915;30;20278;-62
2021/01/04 08:04:32;;;;;;;23.00;12.43;;;1.30;99.90;;;2.28;100.00;100202.53;4716308;30;20659;-61
2021/01/04 08:07:25;;;;;;;18.57;11.50;;;1.30;99.90;;;2.36;100.00;100201.72;4748322;30;20211;-61
2021/01/04 08:10:25;;;;;;;23.30;12.10;;;1.40;99.90;;;2.27;100.00;100206.19;4747905;30;20296;-62
2021/01/04 08:14:08;;;;;;;24.17;11.87;;;1.40;99.90;;;2.55;100.00;100212.00;4740984;30;20285;-61
2021/01/04 08:16:42;;;;;;;20.63;11.40;;;1.40;99.90;;;2.52;100.00;100208.84;4747730;30;20236;-62
2021/01/04 08:19:11;;;;;;;19.53;11.43;;;1.50;99.90;;;2.47;100.00;100215.47;4748098;30;20204;-61
2021/01/04 08:21:56;;;;;;;23.83;12.17;;;1.50;99.90;;;2.29;100.00;100221.97;4747736;30;20772;-63
2021/01/04 08:24:34;;;;;;;24.53;12.33;;;1.40;99.90;;;2.45;100.00;100220.13;4748126;30;20222;-71
2021/01/04 08:27:21;;;;;;;22.83;11.97;;;1.50;99.90;;;2.28;100.00;100218.47;4747361;30;20742;-71
2021/01/04 08:30:04;;;;;;;23.40;11.37;;;1.50;99.90;;;2.31;100.00;100225.28;4747934;30;20281;-70
2021/01/04 08:32:42;;;;;;;24.07;11.60;;;1.40;99.90;;;2.31;100.00;100230.59;4748173;30;20204;-69
2021/01/04 08:35:14;;;;;;;26.07;12.20;;;1.50;99.90;;;2.43;100.00;100234.59;4747840;30;20606;-70
2021/01/04 08:37:46;;;;;;;18.50;10.23;;;1.40;99.90;;;2.34;100.00;100236.41;4747433;30;20246;-70
2021/01/04 08:40:28;;;;;;;21.63;12.20;;;1.40;99.90;;;2.18;100.00;100233.72;4747492;30;20638;-70
2021/01/04 08:43:04;;;;;;;21.57;12.50;;;1.40;99.90;;;2.40;100.00;100233.09;4747176;30;20566;-69
2021/01/04 08:45:36;;;;;;;25.50;12.90;;;1.40;99.90;;;2.18;100.00;100232.94;4747505;30;20200;-65
2021/01/04 08:48:16;;;;;;;24.90;12.17;;;1.40;99.90;;;2.44;100.00;100234.44;4747884;30;20188;-60
2021/01/04 08:50:58;;;;;;;25.20;12.10;;;1.50;99.90;;;2.64;100.00;100229.59;4747187;30;20812;-62
2021/01/04 08:53:25;;;;;;;21.90;11.63;;;1.60;99.90;;;2.58;100.00;100226.78;4747310;30;20738;-62
2021/01/04 08:56:22;;;;;;;22.83;12.13;;;1.60;99.90;;;2.45;100.00;100230.75;4747466;30;20678;-62
2021/01/04 08:58:51;;;;;;;23.90;11.70;;;1.60;99.90;;;2.66;100.00;100232.94;4747556;30;20199;-61
2021/01/04 09:01:25;;;;;;;22.27;11.60;;;1.60;99.90;;;2.64;100.00;100236.75;4747211;30;20770;-60
2021/01/04 09:04:11;;;;;;;23.23;12.13;;;1.70;99.90;;;2.63;100.00;100245.72;4747626;30;20196;-63
2021/01/04 09:06:45;;;;;;;20.67;11.33;;;1.60;99.90;;;2.81;100.00;100241.88;4747605;30;20269;-61
2021/01/04 09:09:18;;;;;;;21.07;12.20;;;1.70;99.90;;;2.75;100.00;100241.72;4747594;30;20228;-61
2021/01/04 09:12:02;;;;;;;21.53;12.00;;;1.70;99.90;;;2.54;100.00;100246.75;4735961;30;20247;-64
2021/01/04 09:14:45;;;;;;;23.57;11.63;;;1.70;99.90;;;2.63;100.00;100251.88;4747501;30;20314;-67
2021/01/04 09:17:23;;;;;;;19.63;11.00;;;1.60;99.90;;;2.54;100.00;100249.41;4747386;30;20216;-66
2021/01/04 09:20:04;;;;;;;24.13;11.53;;;1.60;99.90;;;2.53;100.00;100243.25;4747611;30;20224;-65
2021/01/04 09:22:32;;;;;;;20.70;11.57;;;1.60;99.90;;;2.56;100.00;100245.56;4740771;30;20323;-66
2021/01/04 09:24:59;;;;;;;28.33;10.73;;;1.70;99.90;;;2.79;100.00;100243.06;4711328;30;20302;-65
2021/01/04 09:27:49;;;;;;;21.43;10.87;;;1.70;99.90;;;2.79;100.00;100241.22;4712303;30;20205;-61
2021/01/04 09:30:23;;;;;;;18.00;10.90;;;1.70;99.90;;;2.74;100.00;100242.75;4712559;30;20216;-62
2021/01/04 09:33:14;;;;;;;19.70;10.00;;;1.70;99.90;;;2.59;100.00;100247.06;4712244;30;20221;-63
2021/01/04 09:35:42;;;;;;;20.83;11.10;;;1.70;99.90;;;2.44;100.00;100246.88;4712114;30;20218;-63
2021/01/04 09:38:21;;;;;;;24.60;11.03;;;1.70;99.90;;;2.80;100.00;100250.88;4712060;30;20358;-63
2021/01/04 09:40:53;;;;;;;22.30;11.07;;;1.70;99.90;;;2.64;100.00;100247.41;4711868;30;20665;-61
2021/01/04 09:43:25;;;;;;;18.27;10.50;;;1.70;99.90;;;2.69;100.00;100245.06;4711913;30;20297;-63
2021/01/04 09:45:54;;;;;;;19.90;10.20;;;1.70;99.90;;;2.86;100.00;100241.41;4711972;30;20650;-61
2021/01/04 09:48:32;;;;;;;20.70;11.13;;;1.80;99.90;;;2.49;100.00;100239.25;4717797;30;20613;-62
2021/01/04 09:51:04;;;;;;;20.80;11.20;;;1.80;99.90;;;2.57;100.00;100243.75;4712506;30;20240;-64
2021/01/04 09:53:35;;;;;;;20.57;10.87;;;1.70;99.90;;;2.49;100.00;100245.41;4712050;30;20285;-63
2021/01/04 09:56:06;;;;;;;24.77;11.67;;;1.60;99.90;;;2.43;100.00;100245.22;4715348;30;20218;-63
2021/01/04 09:58:35;;;;;;;37.13;11.80;;;1.60;99.90;;;2.32;100.00;100251.69;4715148;30;20252;-63
2021/01/04 10:01:13;;;;;;;23.33;11.30;;;1.60;99.90;;;2.68;100.00;100235.41;4715306;30;20214;-61
2021/01/04 10:03:54;;;;;;;18.57;10.10;;;1.60;99.90;;;2.68;100.00;100236.25;4714833;30;20194;-60
2021/01/04 10:06:26;;;;;;;20.77;11.07;;;1.60;99.90;;;2.52;100.00;100236.25;4715397;30;20243;-61
2021/01/04 10:08:53;;;;;;;21.33;11.80;;;1.70;99.90;;;2.58;100.00;100234.75;4716000;30;20590;-60
2021/01/04 10:11:23;;;;;;;23.73;10.53;;;1.60;99.90;;;2.50;100.00;100233.75;4722404;30;20295;-62
2021/01/04 10:13:52;;;;;;;28.33;11.10;;;1.60;99.90;;;2.59;100.00;100234.59;4750139;30;20278;-61
2021/01/04 10:16:24;;;;;;;19.60;10.57;;;1.60;99.90;;;2.61;100.00;100229.94;4749952;30;20790;-61
2021/01/04 10:19:02;;;;;;;19.77;11.23;;;1.60;99.90;;;2.66;100.00;100232.09;4750352;30;20197;-61
2021/01/04 10:21:41;;;;;;;23.93;11.53;;;1.70;99.90;;;2.73;100.00;100233.09;4749935;30;20239;-62
2021/01/04 10:24:20;;;;;;;24.03;12.47;;;1.70;99.90;;;2.88;100.00;100242.88;4750034;30;20210;-60
2021/01/04 10:26:55;;;;;;;21.97;11.87;;;1.80;99.90;;;2.75;100.00;100249.72;4749647;30;20197;-62
2021/01/04 10:29:27;;;;;;;24.20;11.70;;;1.80;99.90;;;2.73;100.00;100233.91;4749668;30;20348;-62
2021/01/04 10:32:07;;;;;;;23.23;11.03;;;1.80;99.90;;;2.65;100.00;100238.41;4749760;30;20295;-61
2021/01/04 10:34:44;;;;;;;21.37;10.93;;;1.70;99.90;;;2.40;100.00;100230.44;4749575;30;20664;-61
2021/01/04 10:37:36;;;;;;;24.23;12.07;;;1.60;99.90;;;2.60;100.00;100233.59;4749583;30;20588;-64
2021/01/04 10:40:07;;;;;;;22.63;12.10;;;1.60;99.90;;;2.76;100.00;100224.78;4749496;30;20254;-65
2021/01/04 10:42:39;;;;;;;21.20;11.27;;;1.70;99.90;;;2.76;100.00;100220.28;4749698;30;20283;-65
2021/01/04 10:45:13;;;;;;;19.90;10.67;;;1.70;99.90;;;2.97;100.00;100225.91;4749533;30;20788;-65
2021/01/04 10:47:58;;;;;;;22.93;11.30;;;1.80;99.90;;;2.92;100.00;100224.75;4749794;30;20196;-62
2021/01/04 10:50:34;;;;;;;23.70;11.73;;;1.80;99.90;;;2.78;100.00;100220.09;4748938;30;20244;-63
2021/01/04 10:53:06;;;;;;;19.80;10.33;;;1.80;99.90;;;2.86;100.00;100223.59;4749144;30;20196;-63
2021/01/04 10:55:49;;;;;;;22.73;11.63;;;1.80;99.90;;;2.90;100.00;100224.09;4749031;30;20274;-62
2021/01/04 10:58:25;;;;;;;20.10;11.57;;;1.80;99.90;;;3.04;100.00;100218.91;4749108;30;20205;-65
2021/01/04 11:01:05;;;;;;;19.87;10.03;;;1.90;99.90;;;2.77;100.00;100213.97;4749347;30;20227;-65
2021/01/04 11:03:32;;;;;;;23.30;10.83;;;1.90;99.90;;;2.74;100.00;100222.28;4749246;30;20612;-64
2021/01/04 11:06:00;;;;;;;18.87;11.37;;;1.80;99.90;;;2.67;100.00;100215.16;4748298;30;20300;-65
2021/01/04 11:08:32;;;;;;;19.83;10.97;;;1.80;99.90;;;2.98;100.00;100216.09;4748764;30;20255;-65